This is the latest recevied weather packets stored in our database for station/object OH2HCY. If no packets are shown the sender has not sent any weather packets the latest 1 day(s).
| Time | Temp. | Humidity | Pressure | Rain* | Wind** | Luminosity | Snow |
|---|---|---|---|---|---|---|---|
| 1836273965 | 14.44° C | 91% | 1005.3 hPa | - | 1.79 m/s, 187° | - | - |
| 1836273911 | 14.44° C | 91% | 1005.3 hPa | - | 1.79 m/s, 187° | - | - |
| 1778057515 | 8.89° C | 34% | 1010.6 hPa | - | 2.24 m/s, 282° | - | - |
| 1778056960 | 8.33° C | 36% | 1010.4 hPa | - | 1.79 m/s, 298° | - | - |
| 1778056460 | 8.33° C | 37% | 1010.7 hPa | - | 1.79 m/s, 290° | - | - |
| 1778055950 | 8.33° C | 38% | 1010.6 hPa | - | 3.13 m/s, 263° | - | - |
| 1778055392 | 8.89° C | 37% | 1010.4 hPa | - | 2.24 m/s, 305° | - | - |
| 1778054841 | 8.33° C | 38% | 1010.7 hPa | - | 2.24 m/s, 288° | - | - |
| 1778054265 | 7.78° C | 37% | 1010.5 hPa | - | 2.24 m/s, 297° | - | - |
| 1778053769 | 8.33° C | 39% | 1010.3 hPa | - | 2.24 m/s, 314° | - | - |
| 1778053225 | 8.33° C | 39% | 1010.3 hPa | - | 1.79 m/s, 274° | - | - |
| 1778052672 | 7.78° C | 42% | 1010.4 hPa | - | 2.68 m/s, 271° | - | - |
| 1778052155 | 7.78° C | 44% | 1010.3 hPa | - | 1.79 m/s, 288° | - | - |
| 1778051602 | 7.78° C | 45% | 1010.4 hPa | - | 2.24 m/s, 272° | - | - |
| 1778051060 | 7.78° C | 45% | 1010.4 hPa | - | 3.13 m/s, 281° | - | - |
| 1778050510 | 7.22° C | 47% | 1010.4 hPa | - | 2.24 m/s, 310° | - | - |
| 1778049933 | 7.22° C | 48% | 1010.5 hPa | - | 2.24 m/s, 283° | - | - |
| 1778049395 | 7.22° C | 48% | 1010.4 hPa | - | 1.79 m/s, 280° | - | - |
| 1778048870 | 7.22° C | 49% | 1010.5 hPa | - | 2.68 m/s, 277° | - | - |
| 1778048330 | 6.67° C | 49% | 1010.4 hPa | - | 1.79 m/s, 278° | - | - |
| 1778047765 | 6.67° C | 52% | 1010.5 hPa | - | 1.79 m/s, 267° | - | - |
| 1778047245 | 6.11° C | 54% | 1010.5 hPa | - | 1.79 m/s, 268° | - | - |
| 1778046720 | 5.56° C | 56% | 1010.5 hPa | - | 1.79 m/s, 283° | - | - |
| 1778046163 | 5.56° C | 57% | 1010.6 hPa | - | 1.79 m/s, 282° | - | - |
| 1778045595 | 5.56° C | 59% | 1010.6 hPa | - | 1.79 m/s, 281° | - | - |
* Rain since midnight (hover to see other rain measurements)
** Current wind speed in m/s (hover to see current wind gust speed)